Corona Emblem — 3FHF8 — position and weather

sailwx.info

Track history (hours):
 
Tides and Currents Weather Stations Pressure Air Temp Water Temp Dewpoint Dewpoint Depression Visibility Wind Speed Wind Dir Waves Ship Positions

Corona Emblem

Last reported at 2014-Oct-08 10:32 UTC. Time now 2014-Oct-31 23:40 UTC.
Position S 26°07' E 153°54'.
Warning: this ship's position is 23 days out of date.

Length 230 m; beam 36 m.

Type: Cargo ship. MMSI: 354224000.

Date/timePositionNaut miles runAvg speedWind from/ knotsBaromVisibWave heightAir tempDewpointWater temp
2014-Oct-08 10:32S 26°07' E 153°54'10 9.8
2014-Oct-08 09:33S 26°16' E 153°54'1111.1
2014-Oct-08 08:33S 26°27' E 153°53'1111.1
2014-Oct-08 07:33S 26°39' E 153°52'1211.6
2014-Oct-08 06:33S 26°50' E 153°52'1211.8
2014-Oct-08 05:33S 27°02' E 153°51'1211.9
2014-Oct-08 04:33S 27°14' E 153°51'1211.6
2014-Oct-08 03:33S 27°25' E 153°50'1111.1
2014-Oct-08 02:33S 27°36' E 153°50'1110.8
2014-Oct-08 01:33S 27°47' E 153°49'1110.8
2014-Oct-08 00:33S 27°58' E 153°49'1210.8
2014-Oct-07 23:26S 28°10' E 153°48'1111.5
2014-Oct-07 22:29S 28°21' E 153°48'1010.7
2014-Oct-07 21:33S 28°31' E 153°48'9 9.2
2014-Oct-07 20:33S 28°40' E 153°47'8 8.4
2014-Oct-07 19:33S 28°49' E 153°46'19310.0
2014-Oct-07 00:10S 31°57' E 152°56'2710.2
2014-Oct-06 21:29S 32°23' E 152°44'9 9.9
2014-Oct-06 20:33S 32°30' E 152°38'1010.0
2014-Oct-06 19:33S 32°37' E 152°30'1010.4
2014-Oct-06 18:34S 32°44' E 152°21'1010.3
2014-Oct-06 17:33S 32°51' E 152°11'1110.5
2014-Oct-06 16:33S 32°54' E 151°59'9 8.9
2014-Oct-06 15:33S 32°55' E 151°49'2 2.0
2014-Oct-06 14:32S 32°54' E 151°46'0 0.0
2014-Oct-06 13:32S 32°54' E 151°46'0 0.0
2014-Oct-06 12:32S 32°54' E 151°46'0 0.0
2014-Oct-06 11:32S 32°54' E 151°46'0 0.0
2014-Oct-06 10:32S 32°54' E 151°46'0 0.0
2014-Oct-06 09:32S 32°54' E 151°46'0 0.0
2014-Oct-06 08:32S 32°54' E 151°46'0 0.0
2014-Oct-06 07:32S 32°54' E 151°46'0 0.0
2014-Oct-06 06:32S 32°54' E 151°46'0 0.0
2014-Oct-06 05:32S 32°54' E 151°46'0 0.0
2014-Oct-06 04:32S 32°54' E 151°46'0 0.0
2014-Oct-06 03:32S 32°54' E 151°46'0 0.0
2014-Oct-06 02:29S 32°54' E 151°46'0 0.0
2014-Oct-06 01:32S 32°54' E 151°46'0 0.0
2014-Oct-06 00:32S 32°54' E 151°46'0 0.0
2014-Oct-05 23:32S 32°54' E 151°46'0 0.0
2014-Oct-05 22:32S 32°54' E 151°46'0 0.0
2014-Oct-05 21:32S 32°54' E 151°46'0 0.0
2014-Oct-05 20:26S 32°54' E 151°46'0 0.0
2014-Oct-05 19:32S 32°54' E 151°46'0 0.0
2014-Oct-05 18:32S 32°54' E 151°46'0 0.0
2014-Oct-05 17:32S 32°54' E 151°46'0 0.0
2014-Oct-05 16:32S 32°54' E 151°46'0 0.0
2014-Oct-05 15:32S 32°54' E 151°46'0 0.0
2014-Oct-05 14:32S 32°54' E 151°46'0 0.0
2014-Oct-05 13:32S 32°54' E 151°46'0 0.0
2014-Oct-05 12:32S 32°54' E 151°46'0 0.0
2014-Oct-05 11:32S 32°54' E 151°46'0 0.0
2014-Oct-05 10:32S 32°54' E 151°46'0 0.0
2014-Oct-05 09:32S 32°54' E 151°46'0 0.0
2014-Oct-05 08:32S 32°54' E 151°46'0 0.0
2014-Oct-05 07:29S 32°54' E 151°46'0 0.0
2014-Oct-05 06:32S 32°54' E 151°46'0 0.0
2014-Oct-05 05:32S 32°54' E 151°46'0 0.0
2014-Oct-05 04:32S 32°54' E 151°46'0 0.0
2014-Oct-05 03:32S 32°54' E 151°46'0 0.0
2014-Oct-05 02:32S 32°54' E 151°46'0 0.0
2014-Oct-05 01:32S 32°54' E 151°46'0 0.0
2014-Oct-05 00:32S 32°54' E 151°46'0 0.0
2014-Oct-04 23:32S 32°54' E 151°46'0 0.5
2014-Oct-04 22:33S 32°54' E 151°46'6 6.3
2014-Oct-04 21:33S 32°58' E 151°52'4 4.1
2014-Oct-04 20:33S 33°02' E 151°51'8 7.7
2014-Oct-04 19:33S 33°08' E 151°45'1111.4
2014-Oct-04 18:33S 33°18' E 151°39'1 0.8
2014-Oct-04 17:32S 33°18' E 151°38'0 0.0
2014-Oct-04 16:32S 33°18' E 151°38'0 0.0
2014-Oct-04 09:20S 33°18' E 151°38'15 0.4
2014-Oct-03 00:09S 33°10' E 151°53'711.9
2014-Oct-02 23:33S 33°03' E 151°55'1313.1
2014-Oct-02 22:33S 32°55' E 152°07'1111.4
2014-Oct-02 21:33S 32°47' E 152°17'9 8.7
2014-Oct-02 20:33S 32°41' E 152°24'9 8.6
2014-Oct-02 19:33S 32°35' E 152°32'9 8.8
2014-Oct-02 18:33S 32°29' E 152°39'9 8.7
2014-Oct-02 17:33S 32°22' E 152°45'9 8.9
2014-Oct-02 16:31S 32°13' E 152°49'  
2014-Sep-30 06:09S 28°56' E 154°44'24 2.2
2014-Sep-29 19:03S 28°41' E 154°22'1 2.5
2014-Sep-29 18:28S 28°40' E 154°21'2 2.5
2014-Sep-29 17:33S 28°38' E 154°20'2 2.4
2014-Sep-29 16:33S 28°36' E 154°19'13 2.3
2014-Sep-29 11:10S 28°24' E 154°13'  
Track history (hours):
 
Tides and Currents Weather Stations Pressure Air Temp Water Temp Dewpoint Dewpoint Depression Visibility Wind Speed Wind Dir Waves Ship Positions

Corona Emblem

Last reported at 2014-Oct-08 10:32 UTC. Time now 2014-Oct-31 23:40 UTC.
Position S 26°07' E 153°54'.
Warning: this ship's position is 23 days out of date.

Length 230 m; beam 36 m.

Type: Cargo ship. MMSI: 354224000.

Date/timePositionNaut miles runAvg speedWind from/ knotsBaromVisibWave heightAir tempDewpointWater temp
2014-Oct-08 10:32S 26°07' E 153°54'10 9.8
2014-Oct-08 09:33S 26°16' E 153°54'1111.1
2014-Oct-08 08:33S 26°27' E 153°53'1111.1
2014-Oct-08 07:33S 26°39' E 153°52'1211.6
2014-Oct-08 06:33S 26°50' E 153°52'1211.8
2014-Oct-08 05:33S 27°02' E 153°51'1211.9
2014-Oct-08 04:33S 27°14' E 153°51'1211.6
2014-Oct-08 03:33S 27°25' E 153°50'1111.1
2014-Oct-08 02:33S 27°36' E 153°50'1110.8
2014-Oct-08 01:33S 27°47' E 153°49'1110.8
2014-Oct-08 00:33S 27°58' E 153°49'1210.8
2014-Oct-07 23:26S 28°10' E 153°48'1111.5
2014-Oct-07 22:29S 28°21' E 153°48'1010.7
2014-Oct-07 21:33S 28°31' E 153°48'9 9.2
2014-Oct-07 20:33S 28°40' E 153°47'8 8.4
2014-Oct-07 19:33S 28°49' E 153°46'19310.0
2014-Oct-07 00:10S 31°57' E 152°56'2710.2
2014-Oct-06 21:29S 32°23' E 152°44'9 9.9
2014-Oct-06 20:33S 32°30' E 152°38'1010.0
2014-Oct-06 19:33S 32°37' E 152°30'1010.4
2014-Oct-06 18:34S 32°44' E 152°21'1010.3
2014-Oct-06 17:33S 32°51' E 152°11'1110.5
2014-Oct-06 16:33S 32°54' E 151°59'9 8.9
2014-Oct-06 15:33S 32°55' E 151°49'2 2.0
2014-Oct-06 14:32S 32°54' E 151°46'0 0.0
2014-Oct-06 13:32S 32°54' E 151°46'0 0.0
2014-Oct-06 12:32S 32°54' E 151°46'0 0.0
2014-Oct-06 11:32S 32°54' E 151°46'0 0.0
2014-Oct-06 10:32S 32°54' E 151°46'0 0.0
2014-Oct-06 09:32S 32°54' E 151°46'0 0.0
2014-Oct-06 08:32S 32°54' E 151°46'0 0.0
2014-Oct-06 07:32S 32°54' E 151°46'0 0.0
2014-Oct-06 06:32S 32°54' E 151°46'0 0.0
2014-Oct-06 05:32S 32°54' E 151°46'0 0.0
2014-Oct-06 04:32S 32°54' E 151°46'0 0.0
2014-Oct-06 03:32S 32°54' E 151°46'0 0.0
2014-Oct-06 02:29S 32°54' E 151°46'0 0.0
2014-Oct-06 01:32S 32°54' E 151°46'0 0.0
2014-Oct-06 00:32S 32°54' E 151°46'0 0.0
2014-Oct-05 23:32S 32°54' E 151°46'0 0.0
2014-Oct-05 22:32S 32°54' E 151°46'0 0.0
2014-Oct-05 21:32S 32°54' E 151°46'0 0.0
2014-Oct-05 20:26S 32°54' E 151°46'0 0.0
2014-Oct-05 19:32S 32°54' E 151°46'0 0.0
2014-Oct-05 18:32S 32°54' E 151°46'0 0.0
2014-Oct-05 17:32S 32°54' E 151°46'0 0.0
2014-Oct-05 16:32S 32°54' E 151°46'0 0.0
2014-Oct-05 15:32S 32°54' E 151°46'0 0.0
2014-Oct-05 14:32S 32°54' E 151°46'0 0.0
2014-Oct-05 13:32S 32°54' E 151°46'0 0.0
2014-Oct-05 12:32S 32°54' E 151°46'0 0.0
2014-Oct-05 11:32S 32°54' E 151°46'0 0.0
2014-Oct-05 10:32S 32°54' E 151°46'0 0.0
2014-Oct-05 09:32S 32°54' E 151°46'0 0.0
2014-Oct-05 08:32S 32°54' E 151°46'0 0.0
2014-Oct-05 07:29S 32°54' E 151°46'0 0.0
2014-Oct-05 06:32S 32°54' E 151°46'0 0.0
2014-Oct-05 05:32S 32°54' E 151°46'0 0.0
2014-Oct-05 04:32S 32°54' E 151°46'0 0.0
2014-Oct-05 03:32S 32°54' E 151°46'0 0.0
2014-Oct-05 02:32S 32°54' E 151°46'0 0.0
2014-Oct-05 01:32S 32°54' E 151°46'0 0.0
2014-Oct-05 00:32S 32°54' E 151°46'0 0.0
2014-Oct-04 23:32S 32°54' E 151°46'0 0.5
2014-Oct-04 22:33S 32°54' E 151°46'6 6.3
2014-Oct-04 21:33S 32°58' E 151°52'4 4.1
2014-Oct-04 20:33S 33°02' E 151°51'8 7.7
2014-Oct-04 19:33S 33°08' E 151°45'1111.4
2014-Oct-04 18:33S 33°18' E 151°39'1 0.8
2014-Oct-04 17:32S 33°18' E 151°38'0 0.0
2014-Oct-04 16:32S 33°18' E 151°38'0 0.0
2014-Oct-04 09:20S 33°18' E 151°38'15 0.4
2014-Oct-03 00:09S 33°10' E 151°53'711.9
2014-Oct-02 23:33S 33°03' E 151°55'1313.1
2014-Oct-02 22:33S 32°55' E 152°07'1111.4
2014-Oct-02 21:33S 32°47' E 152°17'9 8.7
2014-Oct-02 20:33S 32°41' E 152°24'9 8.6
2014-Oct-02 19:33S 32°35' E 152°32'9 8.8
2014-Oct-02 18:33S 32°29' E 152°39'9 8.7
2014-Oct-02 17:33S 32°22' E 152°45'9 8.9
2014-Oct-02 16:31S 32°13' E 152°49'  
2014-Sep-30 06:09S 28°56' E 154°44'24 2.2
2014-Sep-29 19:03S 28°41' E 154°22'1 2.5
2014-Sep-29 18:28S 28°40' E 154°21'2 2.5
2014-Sep-29 17:33S 28°38' E 154°20'2 2.4
2014-Sep-29 16:33S 28°36' E 154°19'13 2.3
2014-Sep-29 11:10S 28°24' E 154°13'  

Dump ship's entire track history